AVA124 SLLP-SGAS
Flight info
| Callsign | AVA124 |
|---|---|
| Flight time | 1h 51m |
| Altitude | 23000 |
| Route | VAPAS W18 VURNA/N0461F350 UW18 TOLIP DCT DOPGO UM657 PUGNA PUGNA |
| Aircraft | A320/M-SDE3FGHIRWY/LB1 |
Departure
| Time | 2026-04-21 18:01 |
|---|---|
| Airport | El Alto International Airport (SLLP) |
Arrival
| Time | 2026-04-21 19:52 |
|---|---|
| Airport | Silvio Pettirossi International Airport (SGAS) |
| Time | Latitude | Longitude | Altitude | Speed | Heading |
|---|---|---|---|---|---|
| 2026-04-21 17:43 | -16.50929 | -68.17758 | 13279 ft | 0 kts | 36° |
| 2026-04-21 17:52 | -16.50943 | -68.17768 | 13278 ft | 3 kts | 36° |
| 2026-04-21 17:53 | -16.50958 | -68.17780 | 13279 ft | 3 kts | 36° |
| 2026-04-21 17:53 | -16.50973 | -68.17791 | 13275 ft | 3 kts | 16° |
| 2026-04-21 17:53 | -16.50989 | -68.17790 | 13275 ft | 2 kts | 302° |
| 2026-04-21 17:53 | -16.50993 | -68.17782 | 13274 ft | 0 kts | 274° |
| 2026-04-21 17:55 | -16.50992 | -68.17809 | 13275 ft | 10 kts | 272° |
| 2026-04-21 17:56 | -16.51014 | -68.17903 | 13274 ft | 15 kts | 229° |
| 2026-04-21 17:56 | -16.51091 | -68.17988 | 13271 ft | 17 kts | 227° |
| 2026-04-21 17:56 | -16.51175 | -68.18081 | 13268 ft | 18 kts | 227° |
| 2026-04-21 17:56 | -16.51259 | -68.18183 | 13266 ft | 19 kts | 233° |
| 2026-04-21 17:57 | -16.51323 | -68.18309 | 13262 ft | 21 kts | 250° |
| 2026-04-21 17:57 | -16.51353 | -68.18469 | 13255 ft | 24 kts | 267° |
| 2026-04-21 17:57 | -16.51349 | -68.18659 | 13245 ft | 28 kts | 271° |
| 2026-04-21 17:57 | -16.51342 | -68.18872 | 13236 ft | 31 kts | 272° |
| 2026-04-21 17:58 | -16.51335 | -68.19106 | 13230 ft | 34 kts | 272° |
| 2026-04-21 17:58 | -16.51326 | -68.19359 | 13227 ft | 36 kts | 272° |
| 2026-04-21 17:58 | -16.51319 | -68.19632 | 13203 ft | 39 kts | 271° |
| 2026-04-21 17:58 | -16.51308 | -68.19929 | 13186 ft | 43 kts | 272° |
| 2026-04-21 17:59 | -16.51298 | -68.20250 | 13168 ft | 46 kts | 272° |
| 2026-04-21 17:59 | -16.51287 | -68.20589 | 13153 ft | 48 kts | 272° |
| 2026-04-21 17:59 | -16.51277 | -68.20909 | 13140 ft | 28 kts | 274° |
| 2026-04-21 17:59 | -16.51237 | -68.21051 | 13134 ft | 17 kts | 287° |
| 2026-04-21 18:00 | -16.51272 | -68.21064 | 13133 ft | 8 kts | 96° |
| 2026-04-21 18:00 | -16.51273 | -68.21045 | 13134 ft | 0 kts | 92° |
| 2026-04-21 18:00 | -16.51273 | -68.21029 | 13135 ft | 16 kts | 92° |
| 2026-04-21 18:00 | -16.51290 | -68.20505 | 13157 ft | 90 kts | 92° |
| 2026-04-21 18:01 | -16.51316 | -68.19699 | 13199 ft | 131 kts | 91° |
| 2026-04-21 18:01 | -16.51350 | -68.18624 | 13247 ft | 165 kts | 92° |
| 2026-04-21 18:01 | -16.51394 | -68.17344 | 13356 ft | 187 kts | 91° |
| 2026-04-21 18:01 | -16.51428 | -68.16006 | 14015 ft | 185 kts | 89° |
| 2026-04-21 18:02 | -16.51427 | -68.15091 | 14441 ft | 188 kts | 89° |
| 2026-04-21 18:02 | -16.51530 | -68.13721 | 14889 ft | 196 kts | 107° |
| 2026-04-21 18:02 | -16.52318 | -68.12541 | 15061 ft | 208 kts | 143° |
| 2026-04-21 18:02 | -16.53646 | -68.11925 | 15271 ft | 212 kts | 162° |
| 2026-04-21 18:03 | -16.55058 | -68.11445 | 15474 ft | 217 kts | 160° |
| 2026-04-21 18:03 | -16.56507 | -68.10965 | 15651 ft | 222 kts | 160° |
| 2026-04-21 18:03 | -16.58016 | -68.10470 | 15766 ft | 232 kts | 161° |
| 2026-04-21 18:03 | -16.59585 | -68.09956 | 15886 ft | 241 kts | 160° |
| 2026-04-21 18:04 | -16.61212 | -68.09411 | 16008 ft | 251 kts | 160° |
| 2026-04-21 18:04 | -16.62921 | -68.08838 | 16061 ft | 266 kts | 161° |
| 2026-04-21 18:04 | -16.64675 | -68.08208 | 16467 ft | 264 kts | 153° |
| 2026-04-21 18:04 | -16.66120 | -68.07078 | 16807 ft | 262 kts | 129° |
| 2026-04-21 18:05 | -16.67315 | -68.05627 | 17104 ft | 266 kts | 130° |
| 2026-04-21 18:05 | -16.68543 | -68.04173 | 17422 ft | 268 kts | 131° |
| 2026-04-21 18:05 | -16.69789 | -68.02728 | 17806 ft | 268 kts | 130° |
| 2026-04-21 18:05 | -16.71037 | -68.01290 | 18200 ft | 267 kts | 131° |
| 2026-04-21 18:06 | -16.72285 | -67.99862 | 18590 ft | 266 kts | 131° |
| 2026-04-21 18:06 | -16.73532 | -67.98445 | 18927 ft | 265 kts | 131° |
| 2026-04-21 18:06 | -16.74770 | -67.97022 | 19220 ft | 266 kts | 131° |
| 2026-04-21 18:06 | -16.76043 | -67.95568 | 19298 ft | 277 kts | 131° |
| 2026-04-21 18:07 | -16.77384 | -67.94063 | 19347 ft | 290 kts | 133° |
| 2026-04-21 18:07 | -16.78790 | -67.92492 | 19465 ft | 304 kts | 133° |
| 2026-04-21 18:07 | -16.80263 | -67.90845 | 19587 ft | 318 kts | 132° |
| 2026-04-21 18:07 | -16.81787 | -67.89143 | 19705 ft | 332 kts | 133° |
| 2026-04-21 18:08 | -16.83419 | -67.87318 | 19832 ft | 347 kts | 132° |
| 2026-04-21 18:08 | -16.85097 | -67.85439 | 19948 ft | 361 kts | 133° |
| 2026-04-21 18:08 | -16.86840 | -67.83490 | 20066 ft | 374 kts | 133° |
| 2026-04-21 18:08 | -16.88645 | -67.81465 | 20184 ft | 387 kts | 133° |
| 2026-04-21 18:09 | -16.90512 | -67.79369 | 20323 ft | 400 kts | 133° |
| 2026-04-21 18:09 | -16.92433 | -67.77209 | 20440 ft | 412 kts | 133° |
| 2026-04-21 18:09 | -16.94408 | -67.74993 | 20601 ft | 422 kts | 133° |
| 2026-04-21 18:09 | -16.96396 | -67.72762 | 20907 ft | 427 kts | 133° |
| 2026-04-21 18:10 | -16.98419 | -67.70486 | 21281 ft | 429 kts | 133° |
| 2026-04-21 18:10 | -17.00458 | -67.68192 | 21660 ft | 432 kts | 133° |
| 2026-04-21 18:10 | -17.02507 | -67.65888 | 22043 ft | 435 kts | 133° |
| 2026-04-21 18:10 | -17.04573 | -67.63564 | 22399 ft | 438 kts | 133° |
| 2026-04-21 18:11 | -17.06650 | -67.61225 | 22711 ft | 441 kts | 133° |
| 2026-04-21 18:11 | -17.08745 | -67.58860 | 23060 ft | 444 kts | 133° |
| 2026-04-21 18:11 | -17.10844 | -67.56491 | 23403 ft | 447 kts | 133° |
| 2026-04-21 18:11 | -17.12964 | -67.54100 | 23790 ft | 448 kts | 133° |
| 2026-04-21 18:12 | -17.15118 | -67.51679 | 24078 ft | 450 kts | 133° |
| 2026-04-21 18:12 | -17.17263 | -67.49285 | 24359 ft | 452 kts | 133° |
| 2026-04-21 18:12 | -17.19392 | -67.46918 | 24613 ft | 454 kts | 133° |
| 2026-04-21 18:12 | -17.21563 | -67.44506 | 24881 ft | 456 kts | 133° |
| 2026-04-21 18:13 | -17.23742 | -67.42083 | 25136 ft | 458 kts | 133° |
| 2026-04-21 18:13 | -17.25923 | -67.39652 | 25439 ft | 459 kts | 133° |
| 2026-04-21 18:13 | -17.28107 | -67.37209 | 25680 ft | 461 kts | 133° |
| 2026-04-21 18:13 | -17.30300 | -67.34752 | 25927 ft | 463 kts | 133° |
| 2026-04-21 18:14 | -17.34713 | -67.29813 | 26416 ft | 466 kts | 133° |
| 2026-04-21 18:14 | -17.36932 | -67.27335 | 26658 ft | 468 kts | 133° |
| 2026-04-21 18:14 | -17.39160 | -67.24843 | 26897 ft | 469 kts | 133° |
| 2026-04-21 18:15 | -17.41391 | -67.22344 | 27127 ft | 471 kts | 133° |
| 2026-04-21 18:15 | -17.43632 | -67.19829 | 27311 ft | 474 kts | 133° |
| 2026-04-21 18:15 | -17.45885 | -67.17298 | 27490 ft | 476 kts | 133° |
| 2026-04-21 18:15 | -17.48147 | -67.14755 | 27722 ft | 478 kts | 133° |
| 2026-04-21 18:16 | -17.50416 | -67.12204 | 27963 ft | 479 kts | 133° |
| 2026-04-21 18:16 | -17.52689 | -67.09651 | 28160 ft | 481 kts | 133° |
| 2026-04-21 18:16 | -17.54977 | -67.07083 | 28362 ft | 482 kts | 133° |
| 2026-04-21 18:16 | -17.57274 | -67.04511 | 28520 ft | 484 kts | 133° |
| 2026-04-21 18:17 | -17.59579 | -67.01932 | 28744 ft | 485 kts | 133° |
| 2026-04-21 18:17 | -17.61888 | -66.99344 | 28956 ft | 486 kts | 133° |
| 2026-04-21 18:17 | -17.64198 | -66.96746 | 29171 ft | 487 kts | 133° |
| 2026-04-21 18:17 | -17.66509 | -66.94142 | 29348 ft | 489 kts | 133° |
| 2026-04-21 18:18 | -17.68831 | -66.91527 | 29549 ft | 490 kts | 133° |
| 2026-04-21 18:18 | -17.71144 | -66.88917 | 29841 ft | 488 kts | 133° |
| 2026-04-21 18:18 | -17.73458 | -66.86306 | 30053 ft | 489 kts | 133° |
| 2026-04-21 18:18 | -17.75770 | -66.83696 | 30309 ft | 488 kts | 133° |
| 2026-04-21 18:19 | -17.78082 | -66.81088 | 30495 ft | 488 kts | 133° |
| 2026-04-21 18:19 | -17.80398 | -66.78477 | 30660 ft | 489 kts | 133° |
| 2026-04-21 18:19 | -17.82720 | -66.75873 | 30839 ft | 489 kts | 133° |
| 2026-04-21 18:19 | -17.85052 | -66.73280 | 31045 ft | 488 kts | 133° |
| 2026-04-21 18:20 | -17.87387 | -66.70694 | 31241 ft | 487 kts | 133° |
| 2026-04-21 18:20 | -17.89715 | -66.68121 | 31507 ft | 485 kts | 133° |
| 2026-04-21 18:20 | -17.92039 | -66.65553 | 31685 ft | 485 kts | 133° |
| 2026-04-21 18:20 | -17.94367 | -66.62975 | 31869 ft | 486 kts | 133° |
| 2026-04-21 18:21 | -17.96688 | -66.60396 | 32083 ft | 486 kts | 133° |
| 2026-04-21 18:21 | -17.99002 | -66.57813 | 32342 ft | 484 kts | 133° |
| 2026-04-21 18:21 | -18.01302 | -66.55241 | 32584 ft | 483 kts | 133° |
| 2026-04-21 18:21 | -18.03602 | -66.52670 | 32790 ft | 483 kts | 133° |
| 2026-04-21 18:22 | -18.05903 | -66.50103 | 33014 ft | 482 kts | 133° |
| 2026-04-21 18:22 | -18.08204 | -66.47537 | 33215 ft | 483 kts | 133° |
| 2026-04-21 18:22 | -18.10503 | -66.44973 | 33462 ft | 482 kts | 133° |
| 2026-04-21 18:22 | -18.12798 | -66.42412 | 33687 ft | 481 kts | 133° |
| 2026-04-21 18:23 | -18.15059 | -66.39889 | 33932 ft | 480 kts | 133° |
| 2026-04-21 18:23 | -18.17377 | -66.37299 | 34150 ft | 479 kts | 133° |
| 2026-04-21 18:23 | -18.19629 | -66.34780 | 34348 ft | 479 kts | 133° |
| 2026-04-21 18:23 | -18.21912 | -66.32225 | 34553 ft | 479 kts | 133° |
| 2026-04-21 18:24 | -18.24190 | -66.29673 | 34769 ft | 478 kts | 133° |
| 2026-04-21 18:24 | -18.26466 | -66.27120 | 34925 ft | 479 kts | 133° |
| 2026-04-21 18:24 | -18.28749 | -66.24564 | 35090 ft | 479 kts | 133° |
| 2026-04-21 18:24 | -18.31030 | -66.22012 | 35195 ft | 479 kts | 133° |
| 2026-04-21 18:25 | -18.33315 | -66.19454 | 35221 ft | 480 kts | 132° |
| 2026-04-21 18:25 | -18.37881 | -66.14336 | 35207 ft | 479 kts | 133° |
| 2026-04-21 18:26 | -18.42444 | -66.09219 | 35207 ft | 479 kts | 132° |
| 2026-04-21 18:26 | -18.47004 | -66.04094 | 35197 ft | 479 kts | 132° |
| 2026-04-21 18:27 | -18.51562 | -65.98967 | 35197 ft | 480 kts | 132° |
| 2026-04-21 18:27 | -18.56122 | -65.93831 | 35196 ft | 480 kts | 132° |
| 2026-04-21 18:28 | -18.60688 | -65.88688 | 35198 ft | 480 kts | 132° |
| 2026-04-21 18:28 | -18.65244 | -65.83548 | 35192 ft | 480 kts | 132° |
| 2026-04-21 18:29 | -18.69801 | -65.78412 | 35192 ft | 479 kts | 132° |
| 2026-04-21 18:29 | -18.74355 | -65.73272 | 35189 ft | 479 kts | 132° |
| 2026-04-21 18:30 | -18.78904 | -65.68133 | 35193 ft | 479 kts | 132° |
| 2026-04-21 18:30 | -18.83459 | -65.62980 | 35182 ft | 480 kts | 132° |
| 2026-04-21 18:31 | -18.88018 | -65.57822 | 35158 ft | 480 kts | 132° |
| 2026-04-21 18:31 | -18.92572 | -65.52660 | 35158 ft | 480 kts | 132° |
| 2026-04-21 18:32 | -18.97146 | -65.47512 | 35129 ft | 480 kts | 133° |
| 2026-04-21 18:32 | -19.01737 | -65.42387 | 35151 ft | 480 kts | 133° |
| 2026-04-21 18:33 | -19.06290 | -65.37223 | 35230 ft | 480 kts | 130° |
| 2026-04-21 18:33 | -19.10519 | -65.31759 | 35285 ft | 480 kts | 127° |
| 2026-04-21 18:34 | -19.14575 | -65.26136 | 35359 ft | 481 kts | 126° |
| 2026-04-21 18:34 | -19.18649 | -65.20579 | 35426 ft | 482 kts | 127° |
| 2026-04-21 18:35 | -19.22145 | -65.15926 | 35425 ft | 482 kts | 128° |
| 2026-04-21 18:35 | -19.27014 | -65.09485 | 35428 ft | 482 kts | 128° |
| 2026-04-21 18:36 | -19.31192 | -65.03928 | 35382 ft | 482 kts | 127° |
| 2026-04-21 18:36 | -19.35361 | -64.98355 | 35286 ft | 483 kts | 127° |
| 2026-04-21 18:37 | -19.39279 | -64.92587 | 35200 ft | 482 kts | 120° |
| 2026-04-21 18:37 | -19.42784 | -64.86526 | 35109 ft | 483 kts | 120° |
| 2026-04-21 18:38 | -19.46291 | -64.80455 | 35074 ft | 483 kts | 120° |
| 2026-04-21 18:38 | -19.49797 | -64.74385 | 35077 ft | 483 kts | 120° |
| 2026-04-21 18:39 | -19.53301 | -64.68318 | 35067 ft | 483 kts | 120° |
| 2026-04-21 18:39 | -19.56803 | -64.62250 | 35068 ft | 483 kts | 120° |
| 2026-04-21 18:40 | -19.60310 | -64.56169 | 35053 ft | 484 kts | 120° |
| 2026-04-21 18:40 | -19.63227 | -64.51102 | 35048 ft | 484 kts | 120° |
| 2026-04-21 18:41 | -19.67327 | -64.43961 | 35046 ft | 485 kts | 120° |
| 2026-04-21 18:41 | -19.70840 | -64.37842 | 35054 ft | 486 kts | 120° |
| 2026-04-21 18:42 | -19.74331 | -64.31754 | 35050 ft | 486 kts | 120° |
| 2026-04-21 18:42 | -19.77845 | -64.25629 | 35053 ft | 486 kts | 120° |
| 2026-04-21 18:43 | -19.81353 | -64.19501 | 35050 ft | 486 kts | 120° |
| 2026-04-21 18:43 | -19.84866 | -64.13353 | 35036 ft | 487 kts | 120° |
| 2026-04-21 18:44 | -19.88383 | -64.07203 | 35009 ft | 488 kts | 120° |
| 2026-04-21 18:44 | -19.91909 | -64.01044 | 35013 ft | 488 kts | 120° |
| 2026-04-21 18:45 | -19.95437 | -63.94888 | 35002 ft | 488 kts | 120° |
| 2026-04-21 18:45 | -19.98957 | -63.88726 | 35003 ft | 488 kts | 120° |
| 2026-04-21 18:46 | -20.02491 | -63.82576 | 34993 ft | 488 kts | 121° |
| 2026-04-21 18:46 | -20.06039 | -63.76427 | 34991 ft | 487 kts | 121° |
| 2026-04-21 18:47 | -20.09594 | -63.70289 | 35069 ft | 487 kts | 121° |
| 2026-04-21 18:47 | -20.13147 | -63.64156 | 35081 ft | 487 kts | 121° |
| 2026-04-21 18:48 | -20.16691 | -63.58018 | 35076 ft | 487 kts | 120° |
| 2026-04-21 18:48 | -20.20220 | -63.51881 | 35065 ft | 486 kts | 120° |
| 2026-04-21 18:49 | -20.23152 | -63.46780 | 35046 ft | 486 kts | 120° |
| 2026-04-21 18:49 | -20.26085 | -63.41676 | 35013 ft | 486 kts | 121° |
| 2026-04-21 18:50 | -20.30209 | -63.34500 | 34980 ft | 487 kts | 121° |
| 2026-04-21 18:50 | -20.33744 | -63.28347 | 34966 ft | 487 kts | 121° |
| 2026-04-21 18:51 | -20.37278 | -63.22178 | 34963 ft | 488 kts | 121° |
| 2026-04-21 18:51 | -20.40813 | -63.16002 | 34971 ft | 488 kts | 121° |
| 2026-04-21 18:52 | -20.44354 | -63.09827 | 34961 ft | 488 kts | 121° |
| 2026-04-21 18:52 | -20.47878 | -63.03650 | 34974 ft | 487 kts | 121° |
| 2026-04-21 18:53 | -20.51407 | -62.97530 | 34975 ft | 487 kts | 121° |
| 2026-04-21 18:53 | -20.54972 | -62.91375 | 34966 ft | 488 kts | 121° |
| 2026-04-21 18:54 | -20.58539 | -62.85205 | 34958 ft | 488 kts | 121° |
| 2026-04-21 18:54 | -20.62097 | -62.79028 | 34960 ft | 488 kts | 121° |
| 2026-04-21 18:55 | -20.65657 | -62.72855 | 34966 ft | 488 kts | 121° |
| 2026-04-21 18:55 | -20.69211 | -62.66687 | 34969 ft | 488 kts | 121° |
| 2026-04-21 18:56 | -20.72759 | -62.60516 | 34960 ft | 487 kts | 121° |
| 2026-04-21 18:56 | -20.76301 | -62.54340 | 34957 ft | 487 kts | 121° |
| 2026-04-21 18:57 | -20.79850 | -62.48164 | 34952 ft | 488 kts | 121° |
| 2026-04-21 18:57 | -20.83402 | -62.41984 | 34955 ft | 488 kts | 121° |
| 2026-04-21 18:58 | -20.86940 | -62.35798 | 34956 ft | 488 kts | 121° |
| 2026-04-21 18:58 | -20.90474 | -62.29606 | 34955 ft | 487 kts | 121° |
| 2026-04-21 18:59 | -20.94003 | -62.23424 | 34948 ft | 487 kts | 121° |
| 2026-04-21 18:59 | -20.97905 | -62.17500 | 34945 ft | 487 kts | 127° |
| 2026-04-21 19:00 | -21.01952 | -62.11677 | 34937 ft | 488 kts | 127° |
| 2026-04-21 19:00 | -21.05996 | -62.05852 | 34935 ft | 488 kts | 127° |
| 2026-04-21 19:01 | -21.10045 | -62.00020 | 34935 ft | 488 kts | 127° |
| 2026-04-21 19:01 | -21.14057 | -61.94218 | 34936 ft | 488 kts | 126° |
| 2026-04-21 19:02 | -21.18098 | -61.88367 | 34927 ft | 488 kts | 127° |
| 2026-04-21 19:02 | -21.22141 | -61.82513 | 34934 ft | 489 kts | 127° |
| 2026-04-21 19:03 | -21.26191 | -61.76650 | 34932 ft | 489 kts | 127° |
| 2026-04-21 19:03 | -21.30245 | -61.70782 | 34931 ft | 490 kts | 127° |
| 2026-04-21 19:04 | -21.34296 | -61.64905 | 34928 ft | 490 kts | 127° |
| 2026-04-21 19:04 | -21.38341 | -61.59022 | 34931 ft | 490 kts | 127° |
| 2026-04-21 19:05 | -21.42386 | -61.53128 | 34928 ft | 490 kts | 127° |
| 2026-04-21 19:05 | -21.46436 | -61.47230 | 34931 ft | 491 kts | 127° |
| 2026-04-21 19:06 | -21.50489 | -61.41318 | 34932 ft | 492 kts | 127° |
| 2026-04-21 19:06 | -21.54547 | -61.35403 | 34931 ft | 492 kts | 127° |
| 2026-04-21 19:07 | -21.58610 | -61.29477 | 34926 ft | 492 kts | 127° |
| 2026-04-21 19:07 | -21.62660 | -61.23546 | 34934 ft | 492 kts | 127° |
| 2026-04-21 19:08 | -21.66710 | -61.17614 | 34936 ft | 492 kts | 127° |
| 2026-04-21 19:08 | -21.70769 | -61.11671 | 34935 ft | 493 kts | 127° |
| 2026-04-21 19:09 | -21.74800 | -61.05755 | 34930 ft | 494 kts | 127° |
| 2026-04-21 19:09 | -21.78879 | -60.99752 | 34932 ft | 493 kts | 127° |
| 2026-04-21 19:10 | -21.82905 | -60.93834 | 34936 ft | 493 kts | 127° |
| 2026-04-21 19:10 | -21.86954 | -60.87875 | 34950 ft | 493 kts | 127° |
| 2026-04-21 19:11 | -21.91006 | -60.81915 | 34963 ft | 494 kts | 127° |
| 2026-04-21 19:11 | -21.95057 | -60.75938 | 34973 ft | 494 kts | 127° |
| 2026-04-21 19:12 | -21.99106 | -60.69947 | 34980 ft | 494 kts | 127° |
| 2026-04-21 19:12 | -22.03160 | -60.63960 | 34981 ft | 494 kts | 128° |
| 2026-04-21 19:13 | -22.07917 | -60.58679 | 34981 ft | 491 kts | 140° |
| 2026-04-21 19:13 | -22.13016 | -60.53774 | 34985 ft | 491 kts | 140° |
| 2026-04-21 19:14 | -22.18105 | -60.48849 | 34964 ft | 492 kts | 140° |
| 2026-04-21 19:14 | -22.23198 | -60.43918 | 34952 ft | 492 kts | 140° |
| 2026-04-21 19:15 | -22.28293 | -60.38989 | 34948 ft | 492 kts | 140° |
| 2026-04-21 19:15 | -22.33371 | -60.34040 | 34952 ft | 492 kts | 140° |
| 2026-04-21 19:16 | -22.38438 | -60.29072 | 34946 ft | 492 kts | 140° |
| 2026-04-21 19:16 | -22.43509 | -60.24101 | 34956 ft | 492 kts | 140° |
| 2026-04-21 19:17 | -22.51121 | -60.16655 | 34948 ft | 492 kts | 140° |
| 2026-04-21 19:17 | -22.56186 | -60.11692 | 34952 ft | 491 kts | 140° |
| 2026-04-21 19:18 | -22.61246 | -60.06725 | 34966 ft | 491 kts | 140° |
| 2026-04-21 19:18 | -22.66304 | -60.01753 | 34957 ft | 491 kts | 140° |
| 2026-04-21 19:19 | -22.71360 | -59.96779 | 34958 ft | 491 kts | 140° |
| 2026-04-21 19:19 | -22.76495 | -59.91906 | 34953 ft | 490 kts | 142° |
| 2026-04-21 19:20 | -22.81684 | -59.87100 | 34958 ft | 491 kts | 142° |
| 2026-04-21 19:20 | -22.86864 | -59.82279 | 34970 ft | 491 kts | 142° |
| 2026-04-21 19:21 | -22.92022 | -59.77417 | 34963 ft | 491 kts | 141° |
| 2026-04-21 19:21 | -22.97174 | -59.72540 | 34964 ft | 491 kts | 141° |
| 2026-04-21 19:22 | -23.02331 | -59.67669 | 34966 ft | 492 kts | 141° |
| 2026-04-21 19:22 | -23.07496 | -59.62792 | 34971 ft | 492 kts | 142° |
| 2026-04-21 19:23 | -23.12628 | -59.57938 | 34971 ft | 492 kts | 142° |
| 2026-04-21 19:23 | -23.17788 | -59.53055 | 34973 ft | 492 kts | 142° |
| 2026-04-21 19:24 | -23.22946 | -59.48164 | 34971 ft | 492 kts | 142° |
| 2026-04-21 19:24 | -23.28092 | -59.43269 | 34975 ft | 492 kts | 141° |
| 2026-04-21 19:25 | -23.33243 | -59.38368 | 34975 ft | 492 kts | 142° |
| 2026-04-21 19:25 | -23.38405 | -59.33469 | 34966 ft | 492 kts | 142° |
| 2026-04-21 19:26 | -23.43561 | -59.28565 | 34966 ft | 492 kts | 142° |
| 2026-04-21 19:26 | -23.48705 | -59.23652 | 34971 ft | 492 kts | 141° |
| 2026-04-21 19:27 | -23.53847 | -59.18741 | 34980 ft | 492 kts | 142° |
| 2026-04-21 19:27 | -23.58997 | -59.13833 | 34969 ft | 492 kts | 142° |
| 2026-04-21 19:28 | -23.64135 | -59.08911 | 34960 ft | 492 kts | 142° |
| 2026-04-21 19:28 | -23.69275 | -59.03983 | 34956 ft | 492 kts | 142° |
| 2026-04-21 19:29 | -23.74410 | -58.99054 | 34960 ft | 492 kts | 142° |
| 2026-04-21 19:29 | -23.79551 | -58.94125 | 34965 ft | 492 kts | 142° |
| 2026-04-21 19:30 | -23.84703 | -58.89185 | 34961 ft | 493 kts | 142° |
| 2026-04-21 19:30 | -23.89849 | -58.84235 | 34965 ft | 493 kts | 142° |
| 2026-04-21 19:31 | -23.94999 | -58.79278 | 34965 ft | 493 kts | 142° |
| 2026-04-21 19:31 | -24.00182 | -58.74360 | 34972 ft | 492 kts | 147° |
| 2026-04-21 19:32 | -24.05798 | -58.70103 | 34759 ft | 492 kts | 149° |
| 2026-04-21 19:32 | -24.08589 | -58.68016 | 34524 ft | 492 kts | 149° |
| 2026-04-21 19:32 | -24.11416 | -58.65899 | 34305 ft | 493 kts | 149° |
| 2026-04-21 19:33 | -24.13329 | -58.64466 | 34154 ft | 493 kts | 149° |
| 2026-04-21 19:33 | -24.17077 | -58.61659 | 33842 ft | 493 kts | 149° |
| 2026-04-21 19:33 | -24.19909 | -58.59535 | 33585 ft | 494 kts | 149° |
| 2026-04-21 19:33 | -24.22746 | -58.57403 | 33343 ft | 495 kts | 150° |
| 2026-04-21 19:34 | -24.25587 | -58.55266 | 32494 ft | 498 kts | 150° |
| 2026-04-21 19:34 | -24.28477 | -58.53097 | 31286 ft | 507 kts | 150° |
| 2026-04-21 19:34 | -24.31387 | -58.50908 | 30214 ft | 509 kts | 150° |
| 2026-04-21 19:34 | -24.34326 | -58.48698 | 28871 ft | 514 kts | 149° |
| 2026-04-21 19:35 | -24.37268 | -58.46479 | 28019 ft | 508 kts | 149° |
| 2026-04-21 19:35 | -24.42997 | -58.42145 | 26575 ft | 495 kts | 149° |
| 2026-04-21 19:35 | -24.45820 | -58.40009 | 25860 ft | 490 kts | 149° |
| 2026-04-21 19:36 | -24.48616 | -58.37896 | 25132 ft | 486 kts | 149° |
| 2026-04-21 19:36 | -24.51394 | -58.35800 | 24413 ft | 482 kts | 149° |
| 2026-04-21 19:36 | -24.54150 | -58.33723 | 23706 ft | 479 kts | 149° |
| 2026-04-21 19:36 | -24.56892 | -58.31656 | 22930 ft | 476 kts | 148° |
| 2026-04-21 19:37 | -24.59605 | -58.29604 | 22291 ft | 470 kts | 148° |
| 2026-04-21 19:37 | -24.62278 | -58.27575 | 21654 ft | 465 kts | 148° |
| 2026-04-21 19:37 | -24.64034 | -58.26242 | 21262 ft | 461 kts | 148° |
| 2026-04-21 19:37 | -24.66662 | -58.24249 | 20680 ft | 456 kts | 148° |
| 2026-04-21 19:38 | -24.69253 | -58.22286 | 20132 ft | 450 kts | 148° |
| 2026-04-21 19:38 | -24.71811 | -58.20346 | 19583 ft | 444 kts | 148° |
| 2026-04-21 19:38 | -24.74340 | -58.18430 | 19054 ft | 439 kts | 148° |
| 2026-04-21 19:38 | -24.76844 | -58.16534 | 18525 ft | 434 kts | 148° |
| 2026-04-21 19:39 | -24.79319 | -58.14657 | 17950 ft | 430 kts | 147° |
| 2026-04-21 19:39 | -24.81772 | -58.12794 | 17398 ft | 426 kts | 147° |
| 2026-04-21 19:39 | -24.84196 | -58.10951 | 16855 ft | 422 kts | 147° |
| 2026-04-21 19:39 | -24.86599 | -58.09124 | 16302 ft | 418 kts | 147° |
| 2026-04-21 19:40 | -24.88984 | -58.07309 | 15752 ft | 415 kts | 147° |
| 2026-04-21 19:40 | -24.91356 | -58.05503 | 15182 ft | 413 kts | 147° |
| 2026-04-21 19:40 | -24.93716 | -58.03706 | 14613 ft | 411 kts | 146° |
| 2026-04-21 19:40 | -24.96062 | -58.01915 | 14036 ft | 410 kts | 146° |
| 2026-04-21 19:41 | -24.98398 | -58.00131 | 13417 ft | 408 kts | 146° |
| 2026-04-21 19:41 | -25.00721 | -57.98353 | 12830 ft | 404 kts | 146° |
| 2026-04-21 19:41 | -25.03021 | -57.96593 | 12229 ft | 401 kts | 146° |
| 2026-04-21 19:41 | -25.05300 | -57.94849 | 11644 ft | 397 kts | 146° |
| 2026-04-21 19:42 | -25.07559 | -57.93123 | 11048 ft | 394 kts | 146° |
| 2026-04-21 19:42 | -25.09796 | -57.91416 | 10625 ft | 386 kts | 146° |
| 2026-04-21 19:42 | -25.11950 | -57.89770 | 10515 ft | 369 kts | 146° |
| 2026-04-21 19:42 | -25.14017 | -57.88189 | 10393 ft | 354 kts | 146° |
| 2026-04-21 19:43 | -25.16001 | -57.86670 | 10271 ft | 340 kts | 146° |
| 2026-04-21 19:43 | -25.17911 | -57.85207 | 10155 ft | 328 kts | 146° |
| 2026-04-21 19:43 | -25.19752 | -57.83797 | 10032 ft | 317 kts | 146° |
| 2026-04-21 19:43 | -25.21549 | -57.82423 | 9756 ft | 312 kts | 146° |
| 2026-04-21 19:44 | -25.23327 | -57.81060 | 9356 ft | 311 kts | 146° |
| 2026-04-21 19:44 | -25.25100 | -57.79705 | 8972 ft | 308 kts | 147° |
| 2026-04-21 19:44 | -25.26855 | -57.78362 | 8588 ft | 305 kts | 147° |
| 2026-04-21 19:44 | -25.28586 | -57.77035 | 8012 ft | 300 kts | 147° |
| 2026-04-21 19:45 | -25.30286 | -57.75731 | 7604 ft | 296 kts | 147° |
| 2026-04-21 19:45 | -25.31966 | -57.74439 | 7232 ft | 293 kts | 147° |
| 2026-04-21 19:45 | -25.33633 | -57.73159 | 6859 ft | 291 kts | 147° |
| 2026-04-21 19:45 | -25.35279 | -57.71893 | 6495 ft | 283 kts | 146° |
| 2026-04-21 19:46 | -25.36839 | -57.70692 | 6129 ft | 271 kts | 146° |
| 2026-04-21 19:46 | -25.38287 | -57.69434 | 5785 ft | 259 kts | 134° |
| 2026-04-21 19:46 | -25.39298 | -57.67842 | 5457 ft | 249 kts | 115° |
| 2026-04-21 19:46 | -25.39815 | -57.66059 | 5131 ft | 241 kts | 102° |
| 2026-04-21 19:47 | -25.40166 | -57.64277 | 4813 ft | 234 kts | 102° |
| 2026-04-21 19:47 | -25.40512 | -57.62549 | 4496 ft | 226 kts | 102° |
| 2026-04-21 19:47 | -25.40848 | -57.60878 | 4217 ft | 218 kts | 102° |
| 2026-04-21 19:47 | -25.41170 | -57.59285 | 3929 ft | 207 kts | 103° |
| 2026-04-21 19:48 | -25.41386 | -57.57748 | 3641 ft | 198 kts | 84° |
| 2026-04-21 19:48 | -25.40871 | -57.56426 | 3401 ft | 181 kts | 45° |
| 2026-04-21 19:48 | -25.39857 | -57.55775 | 3166 ft | 162 kts | 11° |
| 2026-04-21 19:48 | -25.38789 | -57.55518 | 2944 ft | 154 kts | 10° |
| 2026-04-21 19:49 | -25.37759 | -57.55268 | 2709 ft | 148 kts | 11° |
| 2026-04-21 19:49 | -25.36753 | -57.55023 | 2546 ft | 148 kts | 9° |
| 2026-04-21 19:49 | -25.35753 | -57.54780 | 2363 ft | 146 kts | 10° |
| 2026-04-21 19:49 | -25.34761 | -57.54538 | 2172 ft | 146 kts | 10° |
| 2026-04-21 19:50 | -25.33773 | -57.54297 | 1983 ft | 145 kts | 11° |
| 2026-04-21 19:50 | -25.32790 | -57.54056 | 1787 ft | 145 kts | 11° |
| 2026-04-21 19:50 | -25.31809 | -57.53817 | 1599 ft | 144 kts | 11° |
| 2026-04-21 19:50 | -25.30833 | -57.53582 | 1378 ft | 143 kts | 11° |
| 2026-04-21 19:51 | -25.29861 | -57.53353 | 1187 ft | 142 kts | 11° |
| 2026-04-21 19:51 | -25.28890 | -57.53119 | 978 ft | 143 kts | 12° |
| 2026-04-21 19:51 | -25.27922 | -57.52879 | 800 ft | 142 kts | 12° |
| 2026-04-21 19:51 | -25.26966 | -57.52643 | 631 ft | 143 kts | 13° |
| 2026-04-21 19:52 | -25.25983 | -57.52402 | 429 ft | 142 kts | 13° |
| 2026-04-21 19:52 | -25.25027 | -57.52167 | 303 ft | 136 kts | 12° |
| 2026-04-21 19:52 | -25.24243 | -57.51973 | 304 ft | 80 kts | 12° |
| 2026-04-21 19:52 | -25.23959 | -57.51904 | 301 ft | 24 kts | 12° |
| 2026-04-21 19:53 | -25.23791 | -57.51863 | 298 ft | 26 kts | 12° |
| 2026-04-21 19:53 | -25.23610 | -57.51819 | 299 ft | 27 kts | 12° |
| 2026-04-21 19:53 | -25.23423 | -57.51773 | 300 ft | 28 kts | 12° |
| 2026-04-21 19:53 | -25.23229 | -57.51726 | 299 ft | 29 kts | 12° |
| 2026-04-21 19:54 | -25.23090 | -57.51692 | 299 ft | 17 kts | 14° |
| 2026-04-21 19:54 | -25.23071 | -57.51583 | 299 ft | 17 kts | 103° |
| 2026-04-21 19:54 | -25.23122 | -57.51486 | 299 ft | 13 kts | 176° |
| 2026-04-21 19:54 | -25.23204 | -57.51505 | 301 ft | 11 kts | 193° |
| 2026-04-21 19:55 | -25.23274 | -57.51523 | 303 ft | 10 kts | 193° |
| 2026-04-21 19:55 | -25.23334 | -57.51538 | 299 ft | 8 kts | 193° |
| 2026-04-21 19:55 | -25.23387 | -57.51551 | 299 ft | 7 kts | 192° |
| 2026-04-21 19:55 | -25.23432 | -57.51562 | 300 ft | 6 kts | 192° |
| 2026-04-21 19:56 | -25.23471 | -57.51572 | 299 ft | 5 kts | 194° |
| 2026-04-21 19:56 | -25.23538 | -57.51590 | 299 ft | 21 kts | 193° |
| 2026-04-21 19:56 | -25.23721 | -57.51637 | 301 ft | 28 kts | 192° |
| 2026-04-21 19:56 | -25.23902 | -57.51682 | 300 ft | 14 kts | 190° |
| 2026-04-21 19:57 | -25.23987 | -57.51648 | 299 ft | 13 kts | 145° |
| 2026-04-21 19:57 | -25.24058 | -57.51599 | 299 ft | 11 kts | 158° |
| 2026-04-21 19:57 | -25.24128 | -57.51608 | 300 ft | 9 kts | 193° |
| 2026-04-21 19:57 | -25.24187 | -57.51623 | 303 ft | 8 kts | 193° |
| 2026-04-21 19:58 | -25.24223 | -57.51597 | 299 ft | 6 kts | 110° |
| 2026-04-21 19:58 | -25.24231 | -57.51556 | 303 ft | 3 kts | 101° |
| 2026-04-21 19:58 | -25.24232 | -57.51550 | 303 ft | 0 kts | 100° |